createdAt,value
2022-07-30T00:01:49.238Z,21.00
2022-07-30T00:04:15.988Z,21.00
2022-07-30T00:06:42.685Z,21.00
2022-07-30T00:09:09.441Z,20.90
2022-07-30T00:11:36.247Z,20.90
2022-07-30T00:14:03.069Z,20.90
2022-07-30T00:16:29.837Z,20.90
2022-07-30T00:18:56.563Z,20.80
2022-07-30T00:21:36.041Z,20.80
2022-07-30T00:24:04.069Z,20.70
2022-07-30T00:26:30.801Z,20.70
2022-07-30T00:28:57.576Z,20.70
2022-07-30T00:31:24.285Z,20.70
2022-07-30T00:33:51.133Z,20.70
2022-07-30T00:36:17.812Z,20.70
2022-07-30T00:38:44.480Z,20.60
2022-07-30T00:41:11.332Z,20.60
2022-07-30T00:43:39.389Z,20.60
2022-07-30T00:46:06.156Z,20.60
2022-07-30T00:48:32.943Z,20.60
2022-07-30T00:50:59.630Z,20.60
2022-07-30T00:53:26.663Z,20.60
2022-07-30T00:55:53.384Z,20.50
2022-07-30T00:58:20.086Z,20.50
2022-07-30T01:00:46.805Z,20.50
2022-07-30T01:03:13.538Z,20.50
2022-07-30T01:05:40.278Z,20.50
2022-07-30T01:08:06.982Z,20.60
2022-07-30T01:10:33.758Z,20.50
2022-07-30T01:13:00.515Z,20.40
2022-07-30T01:15:27.303Z,20.40
2022-07-30T01:17:55.067Z,20.40
2022-07-30T01:20:44.169Z,20.30
2022-07-30T01:23:15.043Z,20.30
2022-07-30T01:26:05.124Z,20.30
2022-07-30T01:28:52.812Z,20.30
2022-07-30T01:31:19.566Z,20.20
2022-07-30T01:33:48.262Z,20.10
2022-07-30T01:36:15.701Z,20.00
2022-07-30T01:38:46.311Z,19.90
2022-07-30T01:41:13.313Z,19.90
2022-07-30T01:43:40.040Z,19.90
2022-07-30T01:46:06.851Z,19.90
2022-07-30T01:48:35.447Z,19.90
2022-07-30T01:51:03.929Z,19.90
2022-07-30T01:53:31.581Z,19.90
2022-07-30T01:55:58.721Z,19.90
2022-07-30T01:58:27.571Z,19.90
2022-07-30T02:00:55.488Z,19.90
2022-07-30T02:03:22.280Z,19.80
2022-07-30T02:05:52.616Z,19.70
2022-07-30T02:08:26.652Z,19.70
2022-07-30T02:10:57.411Z,19.60
2022-07-30T02:13:27.015Z,19.50
2022-07-30T02:16:09.739Z,19.50
2022-07-30T02:18:39.582Z,19.40
2022-07-30T02:21:09.436Z,19.40
2022-07-30T02:23:44.152Z,19.40
2022-07-30T02:26:12.991Z,19.40
2022-07-30T02:28:39.837Z,19.40
2022-07-30T02:31:17.527Z,19.40
2022-07-30T02:33:48.521Z,19.40
2022-07-30T02:36:15.857Z,19.30
2022-07-30T02:38:42.561Z,19.30
2022-07-30T02:41:10.397Z,19.30
2022-07-30T02:43:37.363Z,19.20
2022-07-30T02:46:04.021Z,19.20
2022-07-30T02:48:35.211Z,19.10
2022-07-30T02:51:02.185Z,19.10
2022-07-30T02:53:28.865Z,19.10
2022-07-30T02:55:55.923Z,19.10
2022-07-30T02:58:24.068Z,19.00
2022-07-30T03:00:51.589Z,19.10
2022-07-30T03:03:18.408Z,19.10
2022-07-30T03:05:45.149Z,19.10
2022-07-30T03:08:11.873Z,19.10
2022-07-30T03:10:38.805Z,19.00
2022-07-30T03:13:06.284Z,19.00
2022-07-30T03:15:33.752Z,19.00
2022-07-30T03:18:06.089Z,19.00
2022-07-30T03:20:32.795Z,19.00
2022-07-30T03:22:59.898Z,18.90
2022-07-30T03:25:27.460Z,18.90
2022-07-30T03:27:55.028Z,18.80
2022-07-30T03:30:22.759Z,18.80
2022-07-30T03:32:50.193Z,18.80
2022-07-30T03:35:20.189Z,18.80
2022-07-30T03:37:47.468Z,18.70
2022-07-30T03:40:14.485Z,18.80
2022-07-30T03:42:41.279Z,18.70
2022-07-30T03:45:08.566Z,18.70
2022-07-30T03:47:37.489Z,18.70
2022-07-30T03:50:04.970Z,18.60
2022-07-30T03:52:41.016Z,18.60
2022-07-30T03:55:09.608Z,18.60
2022-07-30T03:57:36.589Z,18.60
2022-07-30T04:00:13.463Z,18.50
2022-07-30T04:02:46.847Z,18.40
2022-07-30T04:05:14.586Z,18.40
2022-07-30T04:07:45.252Z,18.40
2022-07-30T04:10:12.866Z,18.30
2022-07-30T04:12:39.529Z,18.30
2022-07-30T04:16:37.424Z,18.20
2022-07-30T04:17:56.013Z,18.20
2022-07-30T04:20:25.714Z,18.10
2022-07-30T04:22:52.436Z,18.10
2022-07-30T04:25:24.584Z,18.10
2022-07-30T04:28:01.907Z,18.00
2022-07-30T04:30:30.570Z,18.00
2022-07-30T04:32:57.283Z,18.00
2022-07-30T04:35:50.827Z,18.00
2022-07-30T04:38:15.181Z,18.00
2022-07-30T04:40:41.976Z,18.00
2022-07-30T04:43:08.699Z,17.90
2022-07-30T04:45:35.615Z,17.90
2022-07-30T04:48:02.298Z,17.90
2022-07-30T04:50:29.312Z,17.90
2022-07-30T04:52:56.041Z,17.90
2022-07-30T04:55:22.811Z,18.00
2022-07-30T04:57:52.914Z,17.90
2022-07-30T05:00:19.770Z,18.00
2022-07-30T05:02:46.809Z,18.00
2022-07-30T05:05:14.958Z,18.00
2022-07-30T05:07:41.722Z,18.10
2022-07-30T05:10:08.898Z,18.10
2022-07-30T05:12:36.308Z,18.20
2022-07-30T05:15:04.065Z,18.20
2022-07-30T05:17:30.778Z,18.30
2022-07-30T05:19:57.467Z,18.30
2022-07-30T05:22:25.380Z,18.30
2022-07-30T05:24:52.257Z,18.40
2022-07-30T05:27:19.261Z,18.50
2022-07-30T05:29:46.562Z,18.50
2022-07-30T05:32:14.462Z,18.60
2022-07-30T05:34:41.456Z,18.60
2022-07-30T05:37:10.024Z,18.70
2022-07-30T05:39:57.256Z,18.70
2022-07-30T05:42:25.942Z,18.80
2022-07-30T05:44:52.616Z,18.80
2022-07-30T05:47:19.323Z,18.80
2022-07-30T05:49:49.328Z,18.90
2022-07-30T05:52:16.009Z,18.90
2022-07-30T05:54:42.699Z,19.00
2022-07-30T05:57:09.383Z,19.10
2022-07-30T05:59:36.065Z,19.20
2022-07-30T06:02:03.551Z,19.30
2022-07-30T06:04:30.526Z,19.40
2022-07-30T06:06:57.553Z,19.50
2022-07-30T06:09:36.564Z,19.60
2022-07-30T06:12:04.666Z,19.60
2022-07-30T06:14:31.396Z,19.70
2022-07-30T06:16:58.250Z,19.70
2022-07-30T06:19:25.282Z,19.70
2022-07-30T06:22:06.039Z,19.80
2022-07-30T06:24:33.830Z,19.80
2022-07-30T06:27:00.829Z,19.90
2022-07-30T06:29:27.751Z,19.90
2022-07-30T06:31:54.627Z,19.90
2022-07-30T06:34:21.355Z,20.00
2022-07-30T06:36:48.478Z,20.00
2022-07-30T06:39:15.217Z,20.00
2022-07-30T06:42:01.903Z,20.10
2022-07-30T06:44:28.663Z,20.10
2022-07-30T06:46:55.483Z,20.20
2022-07-30T06:49:22.258Z,20.30
2022-07-30T06:51:49.022Z,20.30
2022-07-30T06:54:15.731Z,20.40
2022-07-30T06:56:42.413Z,20.50
2022-07-30T06:59:09.235Z,20.70
2022-07-30T07:01:35.973Z,20.70
2022-07-30T07:04:02.805Z,20.80
2022-07-30T07:06:29.909Z,20.90
2022-07-30T07:08:56.608Z,21.00
2022-07-30T07:11:23.317Z,21.10
2022-07-30T07:13:50.092Z,21.30
2022-07-30T07:16:16.825Z,21.40
2022-07-30T07:18:43.568Z,21.50
2022-07-30T07:21:10.246Z,21.60
2022-07-30T07:23:41.679Z,21.70
2022-07-30T07:26:08.936Z,21.80
2022-07-30T07:28:35.645Z,21.90
2022-07-30T07:31:02.401Z,22.00
2022-07-30T07:33:29.144Z,22.10
2022-07-30T07:35:55.833Z,22.10
2022-07-30T07:38:22.618Z,22.20
2022-07-30T07:40:49.303Z,22.20
2022-07-30T07:43:16.018Z,22.30
2022-07-30T07:45:43.119Z,22.20
2022-07-30T07:48:09.897Z,22.20
2022-07-30T07:50:36.597Z,22.30
2022-07-30T07:53:03.395Z,22.40
2022-07-30T07:55:32.246Z,22.50
2022-07-30T07:58:00.491Z,22.60
2022-07-30T08:00:27.228Z,22.70
2022-07-30T08:02:53.953Z,22.80
2022-07-30T08:05:20.909Z,22.90
2022-07-30T08:07:47.627Z,22.90
2022-07-30T08:10:14.323Z,23.00
2022-07-30T08:12:40.996Z,23.10
2022-07-30T08:15:08.208Z,23.20
2022-07-30T08:17:39.657Z,23.20
2022-07-30T08:20:06.991Z,23.30
2022-07-30T08:22:33.688Z,23.40
2022-07-30T08:25:00.465Z,23.50
2022-07-30T08:27:27.222Z,23.70
2022-07-30T08:29:53.980Z,23.70
2022-07-30T08:32:20.841Z,23.70
2022-07-30T08:34:47.569Z,23.80
2022-07-30T08:37:14.362Z,23.80
2022-07-30T08:39:41.490Z,23.80
2022-07-30T08:42:08.229Z,23.80
2022-07-30T08:44:35.393Z,23.80
2022-07-30T08:47:02.590Z,23.90
2022-07-30T08:49:29.525Z,24.00
2022-07-30T08:51:56.434Z,24.10
2022-07-30T08:54:23.178Z,24.10
2022-07-30T08:56:49.901Z,24.20
2022-07-30T08:59:19.720Z,24.30
2022-07-30T09:01:46.425Z,24.40
2022-07-30T09:04:13.099Z,24.50
2022-07-30T09:06:39.885Z,24.60
2022-07-30T09:09:06.967Z,24.70
2022-07-30T09:11:34.944Z,24.70
2022-07-30T09:14:09.214Z,24.80
2022-07-30T09:16:36.007Z,24.90
2022-07-30T09:19:12.297Z,25.00
2022-07-30T09:21:39.044Z,25.00
2022-07-30T09:24:11.115Z,25.00
2022-07-30T09:26:59.136Z,25.10
2022-07-30T09:29:27.503Z,25.10
2022-07-30T09:32:01.842Z,25.30
2022-07-30T09:34:36.437Z,25.40
2022-07-30T09:37:04.801Z,25.60
2022-07-30T09:39:33.192Z,25.60
2022-07-30T09:42:00.829Z,25.70
2022-07-30T09:44:29.493Z,25.80
2022-07-30T09:46:57.470Z,25.80
2022-07-30T09:49:25.901Z,25.90
2022-07-30T09:51:57.082Z,26.00
2022-07-30T09:54:25.696Z,26.10
2022-07-30T09:57:25.869Z,26.10
2022-07-30T09:59:55.984Z,26.20
2022-07-30T10:02:32.001Z,26.20
2022-07-30T10:05:15.512Z,26.20
2022-07-30T10:07:51.261Z,26.30
2022-07-30T10:10:25.787Z,26.30
2022-07-30T10:13:04.388Z,26.30
2022-07-30T10:15:32.913Z,26.40
2022-07-30T10:18:02.162Z,26.50
2022-07-30T10:20:29.518Z,26.60
2022-07-30T10:22:56.651Z,26.80
2022-07-30T10:25:28.033Z,27.00
2022-07-30T10:27:57.127Z,27.30
2022-07-30T10:30:27.950Z,27.50
2022-07-30T10:32:56.725Z,27.70
2022-07-30T10:35:34.218Z,27.90
2022-07-30T10:38:04.692Z,28.20
2022-07-30T10:40:34.329Z,28.40
2022-07-30T10:43:31.779Z,28.50
2022-07-30T10:46:10.747Z,28.50
2022-07-30T10:48:49.827Z,28.70
2022-07-30T10:51:25.353Z,29.00
2022-07-30T10:54:01.332Z,29.30
2022-07-30T10:56:28.024Z,29.80
2022-07-30T10:59:10.658Z,30.00
2022-07-30T11:01:53.302Z,30.10
2022-07-30T11:04:29.854Z,30.00
2022-07-30T11:07:21.452Z,29.90
2022-07-30T11:10:05.624Z,29.90
2022-07-30T11:12:44.176Z,30.20
2022-07-30T11:15:19.160Z,30.60
2022-07-30T11:18:01.653Z,30.80
2022-07-30T11:20:29.442Z,31.10
2022-07-30T11:23:28.959Z,31.20
2022-07-30T11:26:02.122Z,31.10
2022-07-30T11:28:40.063Z,30.80
2022-07-30T11:31:56.765Z,30.60
2022-07-30T11:34:27.160Z,30.40
2022-07-30T11:37:18.426Z,30.40
2022-07-30T11:39:55.512Z,30.40
2022-07-30T11:42:31.853Z,30.40
2022-07-30T11:45:22.011Z,30.40
2022-07-30T11:47:49.349Z,30.20
2022-07-30T11:50:23.827Z,30.20
2022-07-30T11:52:54.820Z,30.10
2022-07-30T11:55:40.527Z,30.00
2022-07-30T11:58:09.629Z,29.90
2022-07-30T12:00:42.855Z,29.80
2022-07-30T12:03:13.519Z,29.70
2022-07-30T12:05:40.307Z,29.70
2022-07-30T12:08:07.057Z,29.70
2022-07-30T12:10:33.864Z,29.70
2022-07-30T12:13:13.134Z,29.70
2022-07-30T12:15:46.664Z,29.70
2022-07-30T12:18:29.213Z,29.80
2022-07-30T12:21:02.874Z,29.60
2022-07-30T12:23:29.785Z,29.50
2022-07-30T12:25:56.934Z,29.40
2022-07-30T12:28:30.097Z,29.20
2022-07-30T12:30:57.446Z,28.90
2022-07-30T12:33:24.332Z,28.60
2022-07-30T12:35:55.817Z,28.40
2022-07-30T12:38:23.378Z,28.20
2022-07-30T12:40:55.768Z,28.10
2022-07-30T12:43:55.535Z,27.90
2022-07-30T12:46:22.862Z,27.80
2022-07-30T12:48:56.309Z,27.70
2022-07-30T12:51:27.030Z,27.70
2022-07-30T12:53:58.184Z,27.70
2022-07-30T12:56:26.359Z,27.80
2022-07-30T12:58:53.642Z,27.80
2022-07-30T13:01:38.539Z,28.10
2022-07-30T13:04:05.857Z,28.40
2022-07-30T13:06:32.542Z,28.90
2022-07-30T13:08:59.566Z,29.40
2022-07-30T13:11:38.531Z,30.00
2022-07-30T13:14:05.227Z,30.40
2022-07-30T13:16:32.785Z,30.80
2022-07-30T13:18:59.469Z,31.30
2022-07-30T13:21:26.216Z,32.20
2022-07-30T13:23:52.932Z,33.20
2022-07-30T13:26:20.065Z,34.10
2022-07-30T13:28:46.850Z,35.20
2022-07-30T13:31:14.224Z,35.60
2022-07-30T13:33:40.962Z,35.70
2022-07-30T13:36:07.949Z,35.60
2022-07-30T13:38:34.681Z,35.50
2022-07-30T13:41:02.956Z,35.60
2022-07-30T13:43:29.831Z,35.70
2022-07-30T13:46:01.415Z,36.20
2022-07-30T13:48:28.143Z,36.40
2022-07-30T13:50:54.891Z,36.60
2022-07-30T13:53:21.563Z,36.90
2022-07-30T13:55:49.183Z,37.20
2022-07-30T13:58:16.002Z,37.20
2022-07-30T14:00:42.788Z,37.80
2022-07-30T14:03:10.018Z,38.50
2022-07-30T14:05:42.142Z,39.00
2022-07-30T14:08:09.710Z,38.80
2022-07-30T14:10:36.432Z,38.40
2022-07-30T14:13:03.861Z,37.80
2022-07-30T14:15:30.694Z,37.10
2022-07-30T14:17:57.654Z,36.30
2022-07-30T14:20:24.595Z,35.70
2022-07-30T14:22:56.072Z,35.30
2022-07-30T14:25:22.818Z,34.90
2022-07-30T14:27:49.597Z,34.50
2022-07-30T14:30:16.354Z,34.30
2022-07-30T14:32:43.028Z,34.50
2022-07-30T14:35:09.931Z,34.70
2022-07-30T14:37:37.505Z,34.60
2022-07-30T14:40:05.917Z,34.10
2022-07-30T14:42:32.614Z,33.50
2022-07-30T14:44:59.343Z,33.00
2022-07-30T14:47:26.106Z,32.50
2022-07-30T14:49:52.808Z,32.10
2022-07-30T14:52:19.521Z,31.90
2022-07-30T14:54:46.290Z,31.70
2022-07-30T14:57:12.989Z,31.60
2022-07-30T14:59:39.701Z,31.70
2022-07-30T15:02:10.927Z,31.70
2022-07-30T15:04:37.837Z,31.70
2022-07-30T15:07:04.919Z,31.70
2022-07-30T15:09:33.648Z,32.10
2022-07-30T15:12:09.483Z,32.30
2022-07-30T15:14:39.978Z,32.40
2022-07-30T15:17:06.867Z,32.40
2022-07-30T15:19:33.595Z,32.40
2022-07-30T15:22:00.808Z,32.40
2022-07-30T15:24:28.313Z,32.20
2022-07-30T15:26:55.100Z,31.90
2022-07-30T15:29:23.050Z,31.50
2022-07-30T15:31:50.742Z,31.30
2022-07-30T15:34:17.514Z,31.00
2022-07-30T15:36:44.273Z,30.80
2022-07-30T15:39:11.049Z,30.50
2022-07-30T15:41:37.885Z,30.30
2022-07-30T15:44:04.879Z,30.20
2022-07-30T15:46:31.574Z,30.00
2022-07-30T15:48:58.341Z,29.80
2022-07-30T15:51:25.112Z,29.70
2022-07-30T15:53:51.824Z,29.60
2022-07-30T15:56:18.551Z,29.50
2022-07-30T15:58:45.357Z,29.50
2022-07-30T16:01:12.149Z,29.30
2022-07-30T16:03:38.895Z,29.30
2022-07-30T16:06:05.602Z,29.20
2022-07-30T16:08:32.411Z,29.00
2022-07-30T16:10:59.164Z,29.00
2022-07-30T16:13:25.876Z,28.80
2022-07-30T16:15:52.583Z,28.70
2022-07-30T16:18:19.291Z,28.70
2022-07-30T16:20:45.984Z,28.50
2022-07-30T16:23:15.996Z,28.50
2022-07-30T16:25:46.196Z,28.60
2022-07-30T16:28:12.897Z,28.60
2022-07-30T16:30:50.799Z,28.60
2022-07-30T16:33:19.090Z,28.60
2022-07-30T16:35:48.935Z,28.60
2022-07-30T16:38:17.467Z,28.60
2022-07-30T16:40:44.251Z,28.60
2022-07-30T16:43:10.977Z,28.50
2022-07-30T16:45:38.113Z,28.50
2022-07-30T16:48:05.291Z,28.40
2022-07-30T16:50:32.034Z,28.50
2022-07-30T16:52:58.862Z,28.60
2022-07-30T16:55:25.651Z,28.70
2022-07-30T16:57:52.422Z,28.70
2022-07-30T17:00:19.123Z,28.70
2022-07-30T17:02:45.923Z,28.60
2022-07-30T17:05:13.899Z,28.60
2022-07-30T17:07:40.766Z,28.60
2022-07-30T17:10:11.057Z,28.50
2022-07-30T17:12:38.914Z,28.50
2022-07-30T17:15:07.472Z,28.40
2022-07-30T17:17:34.610Z,28.30
2022-07-30T17:20:01.493Z,28.20
2022-07-30T17:22:28.489Z,28.20
2022-07-30T17:24:55.210Z,28.10
2022-07-30T17:27:21.930Z,28.10
2022-07-30T17:29:50.530Z,28.00
2022-07-30T17:32:20.857Z,28.00
2022-07-30T17:34:48.232Z,28.00
2022-07-30T17:37:15.164Z,28.00
2022-07-30T17:40:06.009Z,27.90
2022-07-30T17:42:28.800Z,27.90
2022-07-30T17:44:55.501Z,27.80
2022-07-30T17:47:22.251Z,27.80
2022-07-30T17:49:49.028Z,27.70
2022-07-30T17:52:15.821Z,27.70
2022-07-30T17:54:42.603Z,27.70
2022-07-30T17:57:09.461Z,27.60
2022-07-30T17:59:36.239Z,27.60
2022-07-30T18:02:03.183Z,27.60
2022-07-30T18:04:30.223Z,27.50
2022-07-30T18:06:56.904Z,27.50
2022-07-30T18:09:23.622Z,27.50
2022-07-30T18:11:50.299Z,27.50
2022-07-30T18:14:17.119Z,27.40
2022-07-30T18:16:43.998Z,27.30
2022-07-30T18:19:22.982Z,27.20
2022-07-30T18:21:54.182Z,27.10
2022-07-30T18:24:21.417Z,27.10
2022-07-30T18:26:51.751Z,27.00
2022-07-30T18:29:18.503Z,27.00
2022-07-30T18:31:45.179Z,27.00
2022-07-30T18:34:11.895Z,27.00
2022-07-30T18:36:38.590Z,26.90
2022-07-30T18:39:05.326Z,26.90
2022-07-30T18:41:32.068Z,26.90
2022-07-30T18:43:58.836Z,26.80
2022-07-30T18:46:25.563Z,26.70
2022-07-30T18:48:52.288Z,26.60
2022-07-30T18:51:19.004Z,26.60
2022-07-30T18:53:46.112Z,26.50
2022-07-30T18:56:12.811Z,26.50
2022-07-30T18:58:39.553Z,26.40
2022-07-30T19:01:06.343Z,26.40
2022-07-30T19:03:33.100Z,26.40
2022-07-30T19:05:59.792Z,26.40
2022-07-30T19:08:26.567Z,26.30
2022-07-30T19:10:53.606Z,26.30
2022-07-30T19:13:20.553Z,26.30
2022-07-30T19:15:47.235Z,26.20
2022-07-30T19:18:13.924Z,26.10
2022-07-30T19:20:40.618Z,26.00
2022-07-30T19:23:07.667Z,25.90
2022-07-30T19:25:34.745Z,25.90
2022-07-30T19:28:01.960Z,25.80
2022-07-30T19:30:29.975Z,25.80
2022-07-30T19:33:03.304Z,25.80
2022-07-30T19:35:33.620Z,25.70
2022-07-30T19:38:00.760Z,25.70
2022-07-30T19:40:27.807Z,25.60
2022-07-30T19:42:55.658Z,25.60
2022-07-30T19:45:23.335Z,25.60
2022-07-30T19:47:50.141Z,25.50
2022-07-30T19:50:16.834Z,25.50
2022-07-30T19:52:51.394Z,25.50
2022-07-30T19:55:31.056Z,25.40
2022-07-30T19:58:02.332Z,25.30
2022-07-30T20:00:30.461Z,25.30
2022-07-30T20:02:57.210Z,25.20
2022-07-30T20:05:25.069Z,25.20
2022-07-30T20:07:52.000Z,25.20
2022-07-30T20:10:18.847Z,25.20
2022-07-30T20:12:49.083Z,25.20
2022-07-30T20:15:16.329Z,25.10
2022-07-30T20:17:43.054Z,25.10
2022-07-30T20:20:10.426Z,25.10
2022-07-30T20:22:37.317Z,25.00
2022-07-30T20:25:06.146Z,24.90
2022-07-30T20:27:38.387Z,24.90
2022-07-30T20:30:06.770Z,24.90
2022-07-30T20:32:34.429Z,24.90
2022-07-30T20:35:01.143Z,24.80
2022-07-30T20:37:27.997Z,24.80
2022-07-30T20:39:55.679Z,24.70
2022-07-30T20:42:23.691Z,24.80
2022-07-30T20:44:50.996Z,24.70
2022-07-30T20:47:17.751Z,24.70
2022-07-30T20:50:01.807Z,24.70
2022-07-30T20:52:28.520Z,24.60
2022-07-30T20:54:56.252Z,24.60
2022-07-30T20:57:51.429Z,24.50
2022-07-30T21:00:10.316Z,24.50
2022-07-30T21:02:39.230Z,24.50
2022-07-30T21:05:06.610Z,24.40
2022-07-30T21:07:36.355Z,24.50
2022-07-30T21:10:04.483Z,24.40
2022-07-30T21:12:34.091Z,24.40
2022-07-30T21:15:00.840Z,24.30
2022-07-30T21:17:28.297Z,24.30
2022-07-30T21:19:55.024Z,24.20
2022-07-30T21:22:22.308Z,24.20
2022-07-30T21:24:50.722Z,24.20
2022-07-30T21:27:17.470Z,24.10
2022-07-30T21:29:45.879Z,24.10
2022-07-30T21:32:12.916Z,24.10
2022-07-30T21:37:26.528Z,24.00
2022-07-30T21:40:04.884Z,24.00
2022-07-30T21:42:31.690Z,23.90
2022-07-30T21:44:58.441Z,23.90
2022-07-30T21:47:25.282Z,23.90
2022-07-30T21:49:52.783Z,23.90
2022-07-30T21:52:19.947Z,23.90
2022-07-30T21:54:48.564Z,23.90
2022-07-30T21:57:23.282Z,23.90
2022-07-30T21:59:53.982Z,23.90
2022-07-30T22:02:22.401Z,23.80
2022-07-30T22:04:50.936Z,23.80
2022-07-30T22:07:17.933Z,23.80
2022-07-30T22:09:45.113Z,23.80
2022-07-30T22:12:12.777Z,23.80
2022-07-30T22:14:44.889Z,23.80
2022-07-30T22:17:22.328Z,23.80
2022-07-30T22:19:50.092Z,23.70
2022-07-30T22:22:26.588Z,23.70
2022-07-30T22:24:57.238Z,23.70
2022-07-30T22:27:25.214Z,23.70
2022-07-30T22:29:55.625Z,23.70
2022-07-30T22:32:23.164Z,23.70
2022-07-30T22:34:50.749Z,23.70
2022-07-30T22:37:21.210Z,23.70
2022-07-30T22:39:51.552Z,23.60
2022-07-30T22:42:24.080Z,23.60
2022-07-30T22:44:51.475Z,23.70
2022-07-30T22:47:20.965Z,23.60
2022-07-30T22:49:53.393Z,23.60
2022-07-30T22:52:26.519Z,23.50
2022-07-30T22:55:08.463Z,23.50
2022-07-30T22:57:37.594Z,23.50
2022-07-30T23:00:06.395Z,23.50
2022-07-30T23:02:39.106Z,23.50
2022-07-30T23:05:06.694Z,23.50
2022-07-30T23:07:38.825Z,23.40
2022-07-30T23:10:17.452Z,23.40
2022-07-30T23:12:31.541Z,24.00
2022-07-30T23:12:46.808Z,23.40
2022-07-30T23:15:13.601Z,23.30
2022-07-30T23:17:40.450Z,23.30
2022-07-30T23:20:12.113Z,23.20
2022-07-30T23:22:38.822Z,23.20
2022-07-30T23:25:06.195Z,23.20
2022-07-30T23:27:33.058Z,23.20
2022-07-30T23:29:59.808Z,23.10
2022-07-30T23:32:26.496Z,23.10
2022-07-30T23:34:53.189Z,23.10
2022-07-30T23:37:19.867Z,23.10
2022-07-30T23:39:46.560Z,23.10
2022-07-30T23:42:13.243Z,23.00
2022-07-30T23:44:40.001Z,23.00
2022-07-30T23:47:06.873Z,23.00
2022-07-30T23:49:33.590Z,23.00
2022-07-30T23:52:00.269Z,23.00
2022-07-30T23:54:27.060Z,23.00
2022-07-30T23:56:53.746Z,23.00
2022-07-30T23:59:20.739Z,22.90
